Time;durP1;ratioP1;P1;durP2;ratioP2;P2;SDS_P1;SDS_P2;PMS_P1;PMS_P2;Temp;Humidity;BMP_temperature;BMP_pressure;BME280_temperature;BME280_humidity;BME280_pressure;Samples;Min_cycle;Max_cycle;Signal;HPM_P1;HPM_P2
2023/01/05 00:01:14;;;;;;;;;;;;;;;25.56;26.27;97712.34;4987078;28;19972;-88
2023/01/05 00:03:40;;;;;;;;;;;;;;;25.79;25.89;97719.63;4985258;28;19965;-87
2023/01/05 00:06:09;;;;;;;;;;;;;;;25.74;26.00;97717.38;4991672;28;19921;-87
2023/01/05 00:08:35;;;;;;;;;;;;;;;26.24;25.21;97696.72;4987195;28;19972;-87
2023/01/05 00:25:09;;;;;;;;;;;;;;;24.34;27.33;97698.13;4988179;28;19929;-87
2023/01/05 00:27:35;;;;;;;;;;;;;;;24.78;27.30;97694.41;4988781;28;20409;-87
2023/01/05 00:30:01;;;;;;;;;;;;;;;23.79;27.90;97688.00;4988009;28;19926;-88
2023/01/05 00:32:27;;;;;;;;;;;;;;;24.77;27.29;97683.59;4988202;28;20525;-88
2023/01/05 00:34:54;;;;;;;;;;;;;;;25.46;25.99;97687.41;4985631;28;19922;-88
2023/01/05 00:37:22;;;;;;;;;;;;;;;25.25;26.95;97677.66;4982129;28;20017;-87
2023/01/05 00:39:48;;;;;;;;;;;;;;;24.63;27.14;97665.16;4975927;28;19922;-89
2023/01/05 00:42:14;;;;;;;;;;;;;;;24.76;27.28;97680.03;4977258;28;19929;-87
2023/01/05 00:44:40;;;;;;;;;;;;;;;24.92;27.06;97673.50;4976065;28;19924;-87
2023/01/05 00:47:07;;;;;;;;;;;;;;;24.69;27.43;97675.38;4987821;28;19925;-87
2023/01/05 00:49:33;;;;;;;;;;;;;;;24.13;28.83;97660.25;4974024;28;20271;-87
2023/01/05 00:51:59;;;;;;;;;;;;;;;24.83;26.99;97671.38;4983340;28;20371;-88
2023/01/05 00:54:25;;;;;;;;;;;;;;;24.88;26.81;97656.00;4984148;28;20323;-88
2023/01/05 00:56:51;;;;;;;;;;;;;;;25.29;26.41;97656.63;4989013;28;19970;-87
2023/01/05 00:59:17;;;;;;;;;;;;;;;24.23;27.84;97666.75;4985189;28;19921;-88
2023/01/05 01:01:50;;;;;;;;;;;;;;;25.36;26.44;97666.84;4984329;28;20335;-87
2023/01/05 01:04:17;;;;;;;;;;;;;;;25.21;26.60;97646.84;4980230;28;19948;-87
2023/01/05 01:06:43;;;;;;;;;;;;;;;25.17;26.47;97637.75;4986415;28;20009;-88
2023/01/05 01:09:09;;;;;;;;;;;;;;;25.15;25.77;97647.88;4975703;28;20053;-88
2023/01/05 01:11:35;;;;;;;;;;;;;;;25.41;25.85;97638.16;4978618;28;20293;-87
2023/01/05 01:14:01;;;;;;;;;;;;;;;25.07;27.18;97627.66;4983725;28;19922;-88
2023/01/05 01:16:27;;;;;;;;;;;;;;;25.23;26.39;97621.09;4984377;28;20012;-89
2023/01/05 01:18:53;;;;;;;;;;;;;;;25.00;27.20;97619.44;4978160;28;20009;-88
2023/01/05 01:21:19;;;;;;;;;;;;;;;25.88;25.54;97619.22;4977176;28;19957;-87
2023/01/05 01:23:45;;;;;;;;;;;;;;;25.27;25.77;97614.13;4977378;28;20378;-88
2023/01/05 01:26:12;;;;;;;;;;;;;;;25.01;26.92;97614.63;4984965;28;20005;-88
2023/01/05 01:28:38;;;;;;;;;;;;;;;24.07;28.35;97621.94;4991188;28;19922;-87
2023/01/05 01:31:04;;;;;;;;;;;;;;;24.73;27.28;97627.53;4988577;28;19926;-88
2023/01/05 01:33:30;;;;;;;;;;;;;;;24.67;27.86;97621.69;4983048;28;19930;-88
2023/01/05 01:35:56;;;;;;;;;;;;;;;25.58;25.94;97619.13;4981580;28;19965;-88
2023/01/05 01:38:23;;;;;;;;;;;;;;;25.77;25.74;97607.56;4980740;28;19922;-87
2023/01/05 01:40:49;;;;;;;;;;;;;;;26.17;25.26;97598.50;4979907;28;19933;-88
2023/01/05 01:43:19;;;;;;;;;;;;;;;25.51;25.82;97589.22;4970610;28;20448;-88
2023/01/05 01:45:45;;;;;;;;;;;;;;;25.90;25.17;97585.81;4982967;28;19930;-89
2023/01/05 01:48:16;;;;;;;;;;;;;;;25.96;25.59;97600.84;4989579;28;20294;-88
2023/01/05 01:50:45;;;;;;;;;;;;;;;26.11;25.34;97601.13;4978643;28;20008;-87
2023/01/05 01:53:15;;;;;;;;;;;;;;;26.19;24.84;97599.59;4982209;28;19926;-88
2023/01/05 01:55:42;;;;;;;;;;;;;;;25.28;26.64;97590.41;4984044;28;19956;-87
2023/01/05 01:58:12;;;;;;;;;;;;;;;25.38;26.36;97589.25;4975943;28;19954;-87
2023/01/05 02:00:38;;;;;;;;;;;;;;;24.91;26.96;97588.47;4982858;28;19922;-88
2023/01/05 02:03:05;;;;;;;;;;;;;;;24.88;27.24;97580.16;4985681;28;20263;-87
2023/01/05 02:05:32;;;;;;;;;;;;;;;23.48;29.12;97575.53;4987562;28;19922;-86
2023/01/05 02:07:58;;;;;;;;;;;;;;;24.61;27.76;97567.34;4982659;28;19926;-87
2023/01/05 02:10:33;;;;;;;;;;;;;;;24.36;28.00;97572.19;4979156;28;19922;-87
2023/01/05 02:13:05;;;;;;;;;;;;;;;24.26;28.18;97568.47;4986953;28;19929;-87
2023/01/05 02:15:34;;;;;;;;;;;;;;;24.14;28.36;97541.19;4982512;28;20375;-87
2023/01/05 02:18:00;;;;;;;;;;;;;;;;;;4982352;28;19928;-87
2023/01/05 02:21:04;;;;;;;;;;;;;;;23.42;28.86;97528.88;4992766;28;20392;-88
2023/01/05 02:23:30;;;;;;;;;;;;;;;22.84;30.40;97553.22;4934263;29;20402;-87
2023/01/05 02:26:02;;;;;;;;;;;;;;;23.77;29.53;97531.47;4928976;29;20025;-87
2023/01/05 02:28:47;;;;;;;;;;;;;;;23.56;29.25;97520.88;4957138;28;20021;-87
2023/01/05 02:31:13;;;;;;;;;;;;;;;23.61;29.68;97537.13;4983691;28;19930;-87
2023/01/05 02:33:43;;;;;;;;;;;;;;;24.34;28.66;97527.72;4975963;28;20020;-87
2023/01/05 02:36:17;;;;;;;;;;;;;;;23.44;29.82;97543.22;4981910;28;19930;-86
2023/01/05 02:39:05;;;;;;;;;;;;;;;23.81;29.31;97534.94;4981539;28;20386;-88
2023/01/05 02:41:34;;;;;;;;;;;;;;;23.42;30.61;97521.25;4978969;28;19957;-88
2023/01/05 02:44:01;;;;;;;;;;;;;;;23.04;31.09;97523.06;4986220;28;19922;-85
2023/01/05 02:46:27;;;;;;;;;;;;;;;24.00;29.13;97519.16;4987214;28;19929;-87
2023/01/05 02:48:55;;;;;;;;;;;;;;;22.83;30.39;97509.63;4989120;28;19918;-87
2023/01/05 02:51:23;;;;;;;;;;;;;;;24.04;28.81;97511.41;4984509;28;20297;-87
2023/01/05 02:53:58;;;;;;;;;;;;;;;24.28;28.65;97518.31;4982771;28;19922;-87
2023/01/05 02:56:26;;;;;;;;;;;;;;;23.75;29.31;97508.69;4987478;28;19975;-87
2023/01/05 02:59:01;;;;;;;;;;;;;;;24.26;28.40;97512.34;4985337;28;19933;-87
2023/01/05 03:01:27;;;;;;;;;;;;;;;24.03;30.18;97498.63;4986844;28;19961;-87
2023/01/05 03:03:56;;;;;;;;;;;;;;;24.64;28.57;97524.31;4982772;28;20412;-88
2023/01/05 03:06:26;;;;;;;;;;;;;;;25.41;26.50;97498.38;4988543;28;20283;-88
2023/01/05 03:09:00;;;;;;;;;;;;;;;24.57;27.56;97512.56;4979721;28;20005;-88
2023/01/05 03:14:22;;;;;;;;;;;;;;;24.59;27.50;97490.44;4990222;28;20392;-87
2023/01/05 03:16:49;;;;;;;;;;;;;;;24.22;28.74;97497.66;4983910;28;19928;-86
2023/01/05 03:19:35;;;;;;;;;;;;;;;24.87;27.66;97483.09;4981002;28;19922;-87
2023/01/05 03:36:04;;;;;;;;;;;;;;;24.36;27.75;97462.75;4979699;28;19929;-86
2023/01/05 03:38:42;;;;;;;;;;;;;;;24.68;27.45;97451.22;4983032;28;19918;-87
2023/01/05 03:41:11;;;;;;;;;;;;;;;24.82;27.05;97456.38;4983260;28;20338;-87
2023/01/05 03:43:38;;;;;;;;;;;;;;;25.27;27.10;97458.81;4984627;28;19922;-87
2023/01/05 03:46:13;;;;;;;;;;;;;;;25.32;26.59;97449.78;4983181;28;19956;-87
2023/01/05 03:48:39;;;;;;;;;;;;;;;25.83;26.47;97444.66;4989222;28;19926;-86
2023/01/05 03:51:06;;;;;;;;;;;;;;;24.58;28.30;97438.34;4984513;28;19917;-86
2023/01/05 03:53:32;;;;;;;;;;;;;;;24.77;27.49;97442.13;4983046;28;20028;-87
2023/01/05 03:55:58;;;;;;;;;;;;;;;24.91;28.02;97431.19;4982974;28;19930;-88
2023/01/05 03:58:25;;;;;;;;;;;;;;;25.22;27.58;97437.69;4991181;28;19952;-86
2023/01/05 04:00:51;;;;;;;;;;;;;;;25.86;26.16;97424.03;4989036;28;19929;-86
2023/01/05 04:03:17;;;;;;;;;;;;;;;25.87;26.28;97425.59;4986435;28;19926;-86
2023/01/05 04:05:43;;;;;;;;;;;;;;;25.09;26.77;97427.72;4989004;28;19977;-86
2023/01/05 04:08:09;;;;;;;;;;;;;;;24.84;26.76;97427.84;4981431;28;19930;-86
2023/01/05 04:10:35;;;;;;;;;;;;;;;24.76;26.92;97421.72;4988110;28;19991;-86
2023/01/05 04:13:01;;;;;;;;;;;;;;;25.58;25.94;97422.34;4976870;28;20454;-87
2023/01/05 04:15:27;;;;;;;;;;;;;;;24.93;27.04;97423.09;4979765;28;20390;-87
2023/01/05 04:17:53;;;;;;;;;;;;;;;25.71;26.16;97414.59;4986640;28;19977;-86
2023/01/05 04:20:20;;;;;;;;;;;;;;;25.74;26.21;97413.69;4985249;28;19926;-87
2023/01/05 04:22:46;;;;;;;;;;;;;;;26.03;24.94;97416.91;4984780;28;19932;-87
2023/01/05 04:25:12;;;;;;;;;;;;;;;24.85;28.24;97412.56;4979054;28;20301;-86
2023/01/05 04:27:38;;;;;;;;;;;;;;;24.99;27.39;97415.66;4984192;28;19922;-86
2023/01/05 04:30:04;;;;;;;;;;;;;;;25.56;26.49;97422.00;4977961;28;19929;-87
2023/01/05 04:32:30;;;;;;;;;;;;;;;25.67;26.37;97419.56;4985212;28;19957;-86
2023/01/05 04:34:56;;;;;;;;;;;;;;;25.67;25.91;97417.53;4980468;28;19976;-86
2023/01/05 04:37:22;;;;;;;;;;;;;;;25.82;25.65;97414.94;4984496;28;19996;-86
2023/01/05 04:39:48;;;;;;;;;;;;;;;26.12;25.86;97419.78;4981687;28;20375;-87
2023/01/05 04:42:14;;;;;;;;;;;;;;;25.89;27.02;97421.09;4987706;28;19922;-86
2023/01/05 04:44:40;;;;;;;;;;;;;;;25.15;27.03;97417.50;4983145;28;19914;-86
2023/01/05 04:47:06;;;;;;;;;;;;;;;25.72;26.04;97435.84;4986839;28;20397;-88
2023/01/05 04:49:32;;;;;;;;;;;;;;;25.53;27.10;97431.38;4991991;28;19917;-87
2023/01/05 04:51:58;;;;;;;;;;;;;;;26.40;25.47;97427.06;4986644;28;19922;-88
2023/01/05 04:54:24;;;;;;;;;;;;;;;25.41;27.23;97425.31;4990558;28;20394;-86
2023/01/05 04:56:50;;;;;;;;;;;;;;;25.52;26.99;97419.34;4969379;28;19956;-87
2023/01/05 04:59:17;;;;;;;;;;;;;;;24.11;28.62;97418.66;4985732;28;19965;-87
2023/01/05 05:01:43;;;;;;;;;;;;;;;24.82;27.66;97417.06;4981738;28;19922;-86
2023/01/05 05:04:09;;;;;;;;;;;;;;;24.45;28.66;97420.75;4985181;28;19930;-88
2023/01/05 05:06:35;;;;;;;;;;;;;;;25.05;27.28;97425.06;4982728;28;19918;-86
2023/01/05 05:09:01;;;;;;;;;;;;;;;24.91;27.79;97414.34;4988224;28;19928;-87
2023/01/05 05:11:27;;;;;;;;;;;;;;;25.49;28.17;97408.22;4992855;28;19945;-87
2023/01/05 05:13:53;;;;;;;;;;;;;;;25.37;26.94;97407.00;4980890;28;19925;-87
2023/01/05 05:16:19;;;;;;;;;;;;;;;25.64;26.84;97406.44;4983696;28;20012;-87
2023/01/05 05:18:45;;;;;;;;;;;;;;;25.42;27.66;97412.06;4984450;28;19968;-86
2023/01/05 05:21:11;;;;;;;;;;;;;;;25.48;27.02;97401.03;4980543;28;20021;-89
2023/01/05 05:23:37;;;;;;;;;;;;;;;24.50;28.15;97406.16;4991314;28;19968;-87
2023/01/05 05:26:03;;;;;;;;;;;;;;;25.93;26.70;97404.84;4983934;28;20022;-89
2023/01/05 05:28:29;;;;;;;;;;;;;;;24.00;30.07;97402.16;4980775;28;19930;-87
2023/01/05 05:30:56;;;;;;;;;;;;;;;24.68;28.47;97395.88;4983225;28;20001;-88
2023/01/05 05:33:23;;;;;;;;;;;;;;;25.05;27.35;97396.97;4977408;28;19921;-87
2023/01/05 05:35:49;;;;;;;;;;;;;;;25.39;27.78;97391.25;4982136;28;19926;-87
2023/01/05 05:38:15;;;;;;;;;;;;;;;25.52;27.83;97387.63;4968134;28;20445;-89
2023/01/05 05:40:41;;;;;;;;;;;;;;;25.47;27.22;97393.84;4983835;28;20385;-89
2023/01/05 05:43:07;;;;;;;;;;;;;;;26.41;26.34;97394.06;4983927;28;20382;-88
2023/01/05 05:45:33;;;;;;;;;;;;;;;26.13;26.99;97401.66;4967369;28;19930;-88
2023/01/05 05:48:00;;;;;;;;;;;;;;;24.17;29.39;97411.28;4980469;28;20347;-87
2023/01/05 05:50:26;;;;;;;;;;;;;;;25.00;28.29;97400.38;4982255;28;19926;-87
2023/01/05 05:52:52;;;;;;;;;;;;;;;25.27;27.98;97403.38;4981293;28;19930;-87
2023/01/05 05:55:18;;;;;;;;;;;;;;;25.76;27.57;97399.94;4989391;28;19921;-88
2023/01/05 05:57:44;;;;;;;;;;;;;;;25.99;27.14;97396.59;4981381;28;20389;-87
2023/01/05 06:00:11;;;;;;;;;;;;;;;25.88;26.89;97390.63;4981977;28;20409;-88
2023/01/05 06:02:38;;;;;;;;;;;;;;;26.46;26.51;97396.28;4984188;28;20457;-86
2023/01/05 06:05:04;;;;;;;;;;;;;;;26.11;26.88;97397.75;4981763;28;19941;-86
2023/01/05 06:07:30;;;;;;;;;;;;;;;25.66;27.57;97403.94;4979084;28;19922;-86
2023/01/05 06:09:56;;;;;;;;;;;;;;;25.99;26.94;97411.44;4978331;28;20405;-86
2023/01/05 06:12:22;;;;;;;;;;;;;;;26.33;26.88;97398.41;4993911;28;19918;-86
2023/01/05 06:14:48;;;;;;;;;;;;;;;26.55;27.15;97393.47;4993576;28;19918;-86
2023/01/05 06:17:14;;;;;;;;;;;;;;;26.76;26.31;97397.44;4993648;28;19975;-86
2023/01/05 06:19:40;;;;;;;;;;;;;;;26.34;26.37;97405.63;4993626;28;19922;-86
2023/01/05 06:22:06;;;;;;;;;;;;;;;26.82;26.01;97395.53;4994130;28;19925;-86
2023/01/05 06:24:32;;;;;;;;;;;;;;;25.66;27.49;97412.38;4992267;28;19988;-86
2023/01/05 06:26:58;;;;;;;;;;;;;;;25.00;28.58;97431.25;4986559;28;19930;-87
2023/01/05 06:29:24;;;;;;;;;;;;;;;24.96;29.38;97415.78;4979521;28;20378;-88
2023/01/05 06:31:50;;;;;;;;;;;;;;;25.19;28.76;97432.97;4975285;28;19928;-87
2023/01/05 06:34:16;;;;;;;;;;;;;;;24.13;30.04;97423.84;4993856;28;19926;-87
2023/01/05 06:36:42;;;;;;;;;;;;;;;23.02;31.93;97442.31;4993770;28;19918;-86
2023/01/05 06:39:08;;;;;;;;;;;;;;;22.28;33.06;97449.84;4993861;28;19928;-88
2023/01/05 06:41:34;;;;;;;;;;;;;;;21.33;35.52;97444.41;4988296;28;19925;-87
2023/01/05 06:44:00;;;;;;;;;;;;;;;20.66;37.35;97450.47;4963280;28;20306;-89
2023/01/05 06:46:26;;;;;;;;;;;;;;;20.71;37.32;97450.00;4992327;28;20469;-90
2023/01/05 06:48:52;;;;;;;;;;;;;;;21.59;35.60;97420.31;4995319;28;20016;-89
2023/01/05 06:51:18;;;;;;;;;;;;;;;22.36;34.42;97412.06;4986915;28;20030;-90
2023/01/05 06:53:44;;;;;;;;;;;;;;;22.55;34.80;97416.00;4978691;28;19960;-89
2023/01/05 06:56:10;;;;;;;;;;;;;;;22.85;33.38;97406.44;4977561;28;20387;-89
2023/01/05 06:58:36;;;;;;;;;;;;;;;21.78;34.96;97408.28;4988934;28;19953;-91
2023/01/05 07:01:02;;;;;;;;;;;;;;;22.03;35.63;97397.31;4983774;28;19929;-91
2023/01/05 07:03:29;;;;;;;;;;;;;;;22.86;33.82;97411.59;4983076;28;19922;-91
2023/01/05 07:05:55;;;;;;;;;;;;;;;23.63;32.66;97404.97;4997596;28;20377;-94
2023/01/05 07:08:21;;;;;;;;;;;;;;;23.84;31.81;97399.47;4986829;28;20404;-94
2023/01/05 07:10:47;;;;;;;;;;;;;;;24.39;31.32;97400.09;4989511;28;20392;-94
2023/01/05 07:13:13;;;;;;;;;;;;;;;25.31;30.07;97404.03;4997744;28;19989;-96
2023/01/05 07:15:39;;;;;;;;;;;;;;;25.96;28.83;97415.19;4991608;28;20017;-95
2023/01/05 07:18:05;;;;;;;;;;;;;;;26.29;28.32;97409.06;4988607;28;19965;-95
2023/01/05 07:20:31;;;;;;;;;;;;;;;26.84;27.54;97421.22;4984849;28;19922;-96
2023/01/05 07:22:57;;;;;;;;;;;;;;;27.13;27.21;97421.53;4998901;28;20008;-96
2023/01/05 07:25:23;;;;;;;;;;;;;;;24.97;30.35;97431.41;4998038;28;19922;-96
2023/01/05 07:27:50;;;;;;;;;;;;;;;24.08;31.14;97427.22;4998700;28;20032;-96
2023/01/05 07:30:17;;;;;;;;;;;;;;;22.90;33.26;97445.84;4997015;28;20016;-94
2023/01/05 07:32:43;;;;;;;;;;;;;;;23.12;33.25;97448.88;4991430;28;19988;-95
2023/01/05 07:35:09;;;;;;;;;;;;;;;22.18;34.97;97453.69;4979751;28;19969;-93
2023/01/05 07:37:35;;;;;;;;;;;;;;;22.00;35.72;97461.72;4992541;28;19925;-93
2023/01/05 07:40:01;;;;;;;;;;;;;;;21.04;37.30;97470.50;4994579;28;19965;-92
2023/01/05 07:42:29;;;;;;;;;;;;;;;21.01;37.46;97460.19;4991649;28;19922;-90
2023/01/05 07:44:55;;;;;;;;;;;;;;;20.88;38.08;97485.16;4990982;28;19925;-90
2023/01/05 07:47:21;;;;;;;;;;;;;;;19.79;40.34;97503.66;4992363;28;19922;-90
2023/01/05 07:49:47;;;;;;;;;;;;;;;19.55;41.19;97507.53;4988007;28;20302;-89
2023/01/05 07:52:13;;;;;;;;;;;;;;;19.19;41.31;97516.28;4992333;28;19926;-87
2023/01/05 07:54:39;;;;;;;;;;;;;;;18.53;42.70;97507.41;4988325;28;19926;-89
2023/01/05 07:57:05;;;;;;;;;;;;;;;18.31;44.35;97542.13;4978568;28;20617;-89
2023/01/05 07:59:31;;;;;;;;;;;;;;;19.28;42.09;97546.41;4993657;28;19929;-88
2023/01/05 08:01:59;;;;;;;;;;;;;;;18.21;44.56;97542.19;4993935;28;19929;-88
2023/01/05 08:04:25;;;;;;;;;;;;;;;19.86;41.55;97542.53;4975276;28;19937;-89
2023/01/05 08:06:51;;;;;;;;;;;;;;;20.18;40.20;97539.28;4989091;28;20419;-92
2023/01/05 08:12:02;;;;;;;;;;;;;;;20.66;38.67;97545.31;4974747;28;19929;-91
2023/01/05 08:14:28;;;;;;;;;;;;;;;21.03;37.85;97545.06;4974701;28;19922;-91
2023/01/05 08:16:54;;;;;;;;;;;;;;;20.56;42.87;97535.16;4983299;28;19922;-92
2023/01/05 08:19:22;;;;;;;;;;;;;;;20.15;41.70;97551.28;4971629;28;19926;-91
2023/01/05 08:21:51;;;;;;;;;;;;;;;17.99;44.74;97549.88;4968687;28;19933;-88
2023/01/05 08:24:17;;;;;;;;;;;;;;;18.30;47.27;97551.63;4966077;28;20396;-90
2023/01/05 08:26:43;;;;;;;;;;;;;;;19.22;43.94;97562.78;4970162;28;19965;-89
2023/01/05 08:29:09;;;;;;;;;;;;;;;19.26;42.87;97566.31;4973984;28;19926;-90
2023/01/05 08:31:37;;;;;;;;;;;;;;;20.24;40.60;97555.16;4968296;28;19997;-91
2023/01/05 08:34:04;;;;;;;;;;;;;;;19.45;42.42;97567.72;4973542;28;19965;-92
2023/01/05 08:36:30;;;;;;;;;;;;;;;19.28;41.99;97557.53;4972355;28;19926;-94
2023/01/05 08:38:56;;;;;;;;;;;;;;;20.50;40.55;97556.34;4967454;28;19922;-93
2023/01/05 08:41:27;;;;;;;;;;;;;;;19.66;41.49;97547.97;4973198;28;20383;-92
2023/01/05 08:43:54;;;;;;;;;;;;;;;19.09;42.54;97535.88;4973394;28;19950;-94
2023/01/05 08:46:21;;;;;;;;;;;;;;;20.12;41.73;97550.13;4974538;28;19922;-93
2023/01/05 08:48:48;;;;;;;;;;;;;;;20.43;40.39;97548.88;4968979;28;19950;-92
2023/01/05 08:51:14;;;;;;;;;;;;;;;20.82;40.56;97551.03;4974048;28;19929;-93
2023/01/05 08:53:40;;;;;;;;;;;;;;;22.43;38.13;97560.16;4971116;28;20373;-93
2023/01/05 08:56:06;;;;;;;;;;;;;;;21.43;36.00;97565.50;4973810;28;19922;-93
2023/01/05 08:58:32;;;;;;;;;;;;;;;21.31;35.32;97560.53;4964498;28;20374;-93
2023/01/05 09:00:58;;;;;;;;;;;;;;;21.39;35.08;97567.56;4974057;28;20428;-93
2023/01/05 09:03:24;;;;;;;;;;;;;;;22.13;35.06;97571.63;4973210;28;19929;-92
2023/01/05 09:05:51;;;;;;;;;;;;;;;20.76;36.20;97546.34;4974123;28;19957;-93
2023/01/05 09:08:17;;;;;;;;;;;;;;;21.74;34.58;97574.44;4968305;28;19926;-93
2023/01/05 09:10:43;;;;;;;;;;;;;;;20.81;36.35;97562.63;4989148;28;19921;-93
2023/01/05 09:13:09;;;;;;;;;;;;;;;21.26;35.63;97561.81;4980491;28;19925;-94
2023/01/05 09:15:35;;;;;;;;;;;;;;;22.20;34.44;97563.09;4988628;28;20347;-93
2023/01/05 09:18:01;;;;;;;;;;;;;;;21.91;34.69;97564.94;4984914;28;19968;-93
2023/01/05 09:20:27;;;;;;;;;;;;;;;22.67;33.59;97566.41;4993537;28;20325;-95
2023/01/05 09:22:54;;;;;;;;;;;;;;;23.23;32.95;97556.56;4989448;28;19926;-96
2023/01/05 09:25:20;;;;;;;;;;;;;;;23.65;32.26;97551.03;4994913;28;19922;-94
2023/01/05 09:27:46;;;;;;;;;;;;;;;23.87;31.14;97552.78;4989806;28;20426;-95
2023/01/05 09:30:14;;;;;;;;;;;;;;;22.38;34.23;97563.47;4991232;28;19966;-93
2023/01/05 09:32:40;;;;;;;;;;;;;;;21.95;34.63;97552.47;4992333;28;19929;-94
2023/01/05 09:35:06;;;;;;;;;;;;;;;23.74;32.10;97553.97;4973917;28;19926;-94
2023/01/05 09:37:32;;;;;;;;;;;;;;;23.04;32.94;97546.28;4990400;28;19918;-95
2023/01/05 09:39:58;;;;;;;;;;;;;;;23.02;32.32;97531.94;4987721;28;19934;-95
2023/01/05 09:42:26;;;;;;;;;;;;;;;22.96;33.22;97533.69;4994867;28;19929;-95
2023/01/05 09:45:01;;;;;;;;;;;;;;;22.34;34.50;97540.41;4989048;28;19930;-94
2023/01/05 09:47:30;;;;;;;;;;;;;;;23.29;33.67;97535.19;4978248;28;19928;-94
2023/01/05 09:49:56;;;;;;;;;;;;;;;22.52;34.76;97528.78;4981921;28;19918;-94
2023/01/05 09:52:23;;;;;;;;;;;;;;;22.51;35.02;97544.00;4992186;28;19937;-95
2023/01/05 09:54:49;;;;;;;;;;;;;;;22.20;33.98;97534.34;4986036;28;20298;-95
2023/01/05 09:57:27;;;;;;;;;;;;;;;22.81;33.44;97524.06;4993586;28;19922;-96
2023/01/05 09:59:58;;;;;;;;;;;;;;;22.10;34.81;97538.19;4988069;28;19988;-95
2023/01/05 10:02:33;;;;;;;;;;;;;;;22.28;34.47;97539.34;4989401;28;19922;-96
2023/01/05 10:05:01;;;;;;;;;;;;;;;22.15;33.62;97534.88;4985509;28;19953;-96
2023/01/05 10:07:42;;;;;;;;;;;;;;;23.26;33.28;97533.28;5001343;28;19930;-96
2023/01/05 10:10:40;;;;;;;;;;;;;;;24.70;31.15;97527.34;4989904;28;19992;-96
2023/01/05 10:13:10;;;;;;;;;;;;;;;26.26;29.54;97519.72;4954175;28;20358;-96
2023/01/05 10:15:39;;;;;;;;;;;;;;;26.64;27.63;97511.75;4995381;28;19922;-96
2023/01/05 10:18:24;;;;;;;;;;;;;;;26.13;28.47;97522.66;4975480;28;19914;-96
2023/01/05 10:20:53;;;;;;;;;;;;;;;26.47;28.93;97525.31;4987347;28;19922;-96
2023/01/05 10:23:22;;;;;;;;;;;;;;;25.69;29.86;97515.50;4990764;28;19937;-96
2023/01/05 10:25:58;;;;;;;;;;;;;;;26.37;28.65;97515.25;4986588;28;19969;-96
2023/01/05 10:28:24;;;;;;;;;;;;;;;24.74;29.32;97511.16;4995133;28;20298;-96
2023/01/05 10:30:50;;;;;;;;;;;;;;;24.01;31.86;97513.09;4996298;28;19926;-96
2023/01/05 10:33:25;;;;;;;;;;;;;;;23.57;32.25;97499.25;4989855;28;19945;-95
2023/01/05 10:35:52;;;;;;;;;;;;;;;23.42;32.71;97506.47;4990894;28;19926;-96
2023/01/05 10:38:24;;;;;;;;;;;;;;;24.53;30.72;97507.06;4992334;28;19922;-96
2023/01/05 10:41:02;;;;;;;;;;;;;;;23.93;31.82;97510.94;4994776;28;19929;-96
2023/01/05 10:44:06;;;;;;;;;;;;;;;23.34;31.85;97495.47;4988761;28;19929;-95
2023/01/05 10:46:36;;;;;;;;;;;;;;;25.80;29.83;97490.56;4977014;28;19933;-96
2023/01/05 10:49:04;;;;;;;;;;;;;;;26.31;28.56;97494.59;4972406;28;19930;-96
2023/01/05 10:51:32;;;;;;;;;;;;;;;26.20;28.74;97491.44;4985223;28;19929;-95
2023/01/05 10:53:58;;;;;;;;;;;;;;;26.26;27.77;97483.94;4995382;28;19980;-96
2023/01/05 10:56:27;;;;;;;;;;;;;;;25.01;29.88;97488.22;4988306;28;20283;-96
2023/01/05 10:59:10;;;;;;;;;;;;;;;24.52;31.26;97469.00;4991963;28;19933;-96
2023/01/05 11:01:37;;;;;;;;;;;;;;;23.42;31.53;97478.44;4999449;28;19926;-96
2023/01/05 11:04:06;;;;;;;;;;;;;;;22.30;32.61;97475.38;4989891;28;19917;-95
2023/01/05 11:06:33;;;;;;;;;;;;;;;22.10;34.18;97488.63;4994810;28;19930;-95
2023/01/05 11:09:12;;;;;;;;;;;;;;;22.52;33.14;97484.78;4996926;28;20321;-96
2023/01/05 11:11:38;;;;;;;;;;;;;;;21.99;33.66;97496.47;4996167;28;19922;-96
2023/01/05 11:14:05;;;;;;;;;;;;;;;22.15;33.93;97478.97;4989896;28;19948;-94
2023/01/05 11:16:33;;;;;;;;;;;;;;;21.74;34.70;97479.44;4977762;28;19926;-95
2023/01/05 11:19:03;;;;;;;;;;;;;;;21.31;34.36;97491.50;4989489;28;20406;-94
2023/01/05 11:21:36;;;;;;;;;;;;;;;20.75;37.80;97470.25;4990822;28;19925;-96
2023/01/05 11:24:03;;;;;;;;;;;;;;;21.41;34.78;97478.56;4990748;28;20374;-96
2023/01/05 11:26:33;;;;;;;;;;;;;;;21.30;35.36;97467.63;4994798;28;20432;-96
2023/01/05 11:29:08;;;;;;;;;;;;;;;21.02;35.76;97475.72;4987921;28;19926;-95
2023/01/05 11:31:49;;;;;;;;;;;;;;;21.12;35.59;97466.41;4984296;28;19965;-95
2023/01/05 11:34:18;;;;;;;;;;;;;;;21.79;35.59;97479.72;4987877;28;20322;-94
2023/01/05 11:36:54;;;;;;;;;;;;;;;21.77;33.57;97473.78;4988835;28;19929;-96
2023/01/05 11:39:25;;;;;;;;;;;;;;;21.90;34.06;97455.16;4989688;28;19921;-94
2023/01/05 11:42:02;;;;;;;;;;;;;;;21.67;33.51;97449.66;4989787;28;19949;-96
2023/01/05 11:44:29;;;;;;;;;;;;;;;21.96;33.21;97452.63;4986674;28;20386;-96
2023/01/05 11:46:55;;;;;;;;;;;;;;;22.53;33.79;97444.41;4986874;28;20297;-94
2023/01/05 11:49:21;;;;;;;;;;;;;;;21.22;34.74;97441.03;4991131;28;20278;-93
2023/01/05 11:51:47;;;;;;;;;;;;;;;21.13;33.13;97446.41;4996995;28;19975;-95
2023/01/05 11:54:26;;;;;;;;;;;;;;;21.14;33.92;97456.34;4984759;28;19926;-93
2023/01/05 11:57:05;;;;;;;;;;;;;;;20.39;37.50;97458.16;4986794;28;19957;-94
2023/01/05 11:59:31;;;;;;;;;;;;;;;21.35;36.51;97452.38;4994960;28;19928;-94
2023/01/05 12:01:57;;;;;;;;;;;;;;;20.97;35.38;97463.06;4994380;28;20433;-94
2023/01/05 12:04:50;;;;;;;;;;;;;;;21.96;33.76;97461.03;4981549;28;19930;-93
2023/01/05 12:07:24;;;;;;;;;;;;;;;21.11;35.83;97465.59;4985911;28;19921;-94
2023/01/05 12:09:56;;;;;;;;;;;;;;;20.73;35.06;97450.34;4991168;28;19933;-93
2023/01/05 12:12:34;;;;;;;;;;;;;;;20.87;34.81;97450.09;4992180;28;20021;-95
2023/01/05 12:15:20;;;;;;;;;;;;;;;20.42;35.09;97446.16;4995642;28;19922;-94
2023/01/05 12:17:59;;;;;;;;;;;;;;;21.60;34.44;97463.00;4991742;28;19929;-94
2023/01/05 12:20:35;;;;;;;;;;;;;;;22.77;32.54;97452.63;4986717;28;21459;-93
2023/01/05 12:23:20;;;;;;;;;;;;;;;21.09;35.39;97456.09;4987726;28;19926;-95
2023/01/05 12:25:46;;;;;;;;;;;;;;;21.55;34.43;97438.34;4992642;28;19928;-95
2023/01/05 12:28:12;;;;;;;;;;;;;;;20.70;36.99;97467.16;4994212;28;19953;-93
2023/01/05 12:30:55;;;;;;;;;;;;;;;21.39;36.03;97458.66;4989145;28;20004;-93
2023/01/05 12:33:39;;;;;;;;;;;;;;;21.97;34.98;97449.41;4985673;28;19922;-93
2023/01/05 12:36:14;;;;;;;;;;;;;;;21.89;31.55;97455.59;4993398;28;20064;-96
2023/01/05 12:38:46;;;;;;;;;;;;;;;20.45;36.70;97448.06;4984496;28;19929;-93
2023/01/05 12:41:33;;;;;;;;;;;;;;;20.11;37.23;97461.38;4989293;28;19969;-93
2023/01/05 12:44:10;;;;;;;;;;;;;;;21.98;33.77;97461.38;4951311;28;20008;-95
2023/01/05 12:46:55;;;;;;;;;;;;;;;20.35;35.60;97454.63;4985348;28;19922;-95
2023/01/05 12:49:27;;;;;;;;;;;;;;;21.31;35.41;97452.41;4986854;28;19976;-93
2023/01/05 12:51:53;;;;;;;;;;;;;;;21.79;33.13;97451.00;4984012;28;20004;-93
2023/01/05 12:54:38;;;;;;;;;;;;;;;21.88;33.31;97465.19;4980380;28;19996;-96
2023/01/05 12:57:10;;;;;;;;;;;;;;;20.25;36.95;97459.19;4989161;28;19924;-93
2023/01/05 12:59:56;;;;;;;;;;;;;;;21.22;35.54;97457.78;4970534;28;20321;-92
2023/01/05 13:02:27;;;;;;;;;;;;;;;20.87;34.39;97466.03;4981653;28;19926;-93
2023/01/05 13:04:53;;;;;;;;;;;;;;;21.46;33.24;97455.72;4986580;28;19969;-92
2023/01/05 13:07:22;;;;;;;;;;;;;;;21.86;34.71;97467.63;4991871;28;19969;-93
2023/01/05 13:09:54;;;;;;;;;;;;;;;20.88;34.76;97459.25;4993526;28;20033;-93
2023/01/05 13:12:20;;;;;;;;;;;;;;;20.91;36.35;97470.34;4983141;28;19925;-92
2023/01/05 13:14:53;;;;;;;;;;;;;;;20.66;35.14;97456.84;4987680;28;19965;-94
2023/01/05 13:17:23;;;;;;;;;;;;;;;21.08;33.35;97469.25;4992113;28;19929;-94
2023/01/05 13:19:57;;;;;;;;;;;;;;;20.95;35.58;97468.28;4994990;28;20333;-93
2023/01/05 13:22:26;;;;;;;;;;;;;;;23.04;31.03;97459.47;4986378;28;19929;-93
2023/01/05 13:25:02;;;;;;;;;;;;;;;21.72;33.52;97465.91;4975243;28;20303;-92
2023/01/05 13:27:30;;;;;;;;;;;;;;;22.05;32.67;97469.59;4983290;28;20008;-92
2023/01/05 13:29:59;;;;;;;;;;;;;;;22.94;30.79;97466.13;4976963;28;19949;-93